sensor_id;sensor_type;location;lat;lon;timestamp;P1;durP1;ratioP1;P2;durP2;ratioP2
33876;SDS011;20166;51.738;7.158;2022-08-01T00:02:30;23.17;;;13.83;;
33876;SDS011;20166;51.738;7.158;2022-08-01T00:05:16;19.93;;;13.77;;
33876;SDS011;20166;51.738;7.158;2022-08-01T00:08:03;24.97;;;14.13;;
33876;SDS011;20166;51.738;7.158;2022-08-01T00:10:49;23.43;;;13.67;;
33876;SDS011;20166;51.738;7.158;2022-08-01T00:13:35;21.37;;;14.47;;
33876;SDS011;20166;51.738;7.158;2022-08-01T00:16:23;22.93;;;13.50;;
33876;SDS011;20166;51.738;7.158;2022-08-01T00:19:09;23.37;;;13.90;;
33876;SDS011;20166;51.738;7.158;2022-08-01T00:21:56;22.83;;;13.93;;
33876;SDS011;20166;51.738;7.158;2022-08-01T00:24:42;22.93;;;13.33;;
33876;SDS011;20166;51.738;7.158;2022-08-01T00:27:29;20.50;;;13.20;;
33876;SDS011;20166;51.738;7.158;2022-08-01T00:30:21;18.77;;;13.00;;
33876;SDS011;20166;51.738;7.158;2022-08-01T00:33:08;21.13;;;13.00;;
33876;SDS011;20166;51.738;7.158;2022-08-01T00:35:55;18.73;;;12.97;;
33876;SDS011;20166;51.738;7.158;2022-08-01T00:38:42;18.57;;;13.17;;
33876;SDS011;20166;51.738;7.158;2022-08-01T00:41:28;18.80;;;13.10;;
33876;SDS011;20166;51.738;7.158;2022-08-01T00:44:14;19.70;;;12.53;;
33876;SDS011;20166;51.738;7.158;2022-08-01T00:47:01;22.87;;;13.53;;
33876;SDS011;20166;51.738;7.158;2022-08-01T00:49:49;20.20;;;12.63;;
33876;SDS011;20166;51.738;7.158;2022-08-01T00:52:36;20.17;;;12.63;;
33876;SDS011;20166;51.738;7.158;2022-08-01T00:55:23;20.20;;;13.77;;
33876;SDS011;20166;51.738;7.158;2022-08-01T00:58:10;22.23;;;13.40;;
33876;SDS011;20166;51.738;7.158;2022-08-01T01:00:56;22.70;;;12.47;;
33876;SDS011;20166;51.738;7.158;2022-08-01T01:03:47;22.70;;;12.77;;
33876;SDS011;20166;51.738;7.158;2022-08-01T01:06:46;20.13;;;13.43;;
33876;SDS011;20166;51.738;7.158;2022-08-01T01:09:39;21.73;;;12.37;;
33876;SDS011;20166;51.738;7.158;2022-08-01T01:12:33;22.93;;;12.67;;
33876;SDS011;20166;51.738;7.158;2022-08-01T01:15:26;21.00;;;13.50;;
33876;SDS011;20166;51.738;7.158;2022-08-01T01:18:17;20.27;;;12.30;;
33876;SDS011;20166;51.738;7.158;2022-08-01T01:21:14;23.83;;;14.20;;
33876;SDS011;20166;51.738;7.158;2022-08-01T01:24:20;21.37;;;12.53;;
33876;SDS011;20166;51.738;7.158;2022-08-01T01:27:16;21.60;;;12.80;;
33876;SDS011;20166;51.738;7.158;2022-08-01T01:30:08;20.43;;;13.43;;
33876;SDS011;20166;51.738;7.158;2022-08-01T01:32:55;28.47;;;13.80;;
33876;SDS011;20166;51.738;7.158;2022-08-01T01:35:47;24.97;;;14.27;;
33876;SDS011;20166;51.738;7.158;2022-08-01T01:38:39;21.53;;;13.07;;
33876;SDS011;20166;51.738;7.158;2022-08-01T01:41:27;20.93;;;14.17;;
33876;SDS011;20166;51.738;7.158;2022-08-01T01:44:15;22.60;;;13.93;;
33876;SDS011;20166;51.738;7.158;2022-08-01T01:47:05;23.90;;;13.70;;
33876;SDS011;20166;51.738;7.158;2022-08-01T01:49:52;22.73;;;13.07;;
33876;SDS011;20166;51.738;7.158;2022-08-01T01:52:41;20.60;;;13.17;;
33876;SDS011;20166;51.738;7.158;2022-08-01T01:55:30;21.90;;;13.23;;
33876;SDS011;20166;51.738;7.158;2022-08-01T01:58:34;21.00;;;12.50;;
33876;SDS011;20166;51.738;7.158;2022-08-01T02:01:23;21.17;;;13.43;;
33876;SDS011;20166;51.738;7.158;2022-08-01T02:04:34;21.00;;;13.30;;
33876;SDS011;20166;51.738;7.158;2022-08-01T02:07:22;17.90;;;12.20;;
33876;SDS011;20166;51.738;7.158;2022-08-01T02:10:10;26.97;;;13.40;;
33876;SDS011;20166;51.738;7.158;2022-08-01T02:12:59;22.50;;;13.30;;
33876;SDS011;20166;51.738;7.158;2022-08-01T02:15:49;25.37;;;13.53;;
33876;SDS011;20166;51.738;7.158;2022-08-01T02:18:44;19.00;;;12.27;;
33876;SDS011;20166;51.738;7.158;2022-08-01T02:21:32;21.33;;;11.87;;
33876;SDS011;20166;51.738;7.158;2022-08-01T02:24:35;20.73;;;11.10;;
33876;SDS011;20166;51.738;7.158;2022-08-01T02:27:24;22.27;;;11.80;;
33876;SDS011;20166;51.738;7.158;2022-08-01T02:30:13;18.47;;;10.83;;
33876;SDS011;20166;51.738;7.158;2022-08-01T02:33:02;19.27;;;11.07;;
33876;SDS011;20166;51.738;7.158;2022-08-01T02:35:59;21.57;;;10.80;;
33876;SDS011;20166;51.738;7.158;2022-08-01T02:39:10;16.40;;;9.57;;
33876;SDS011;20166;51.738;7.158;2022-08-01T02:42:02;16.07;;;10.00;;
33876;SDS011;20166;51.738;7.158;2022-08-01T02:44:52;18.23;;;9.80;;
33876;SDS011;20166;51.738;7.158;2022-08-01T02:47:40;14.30;;;9.10;;
33876;SDS011;20166;51.738;7.158;2022-08-01T02:50:28;16.87;;;9.67;;
33876;SDS011;20166;51.738;7.158;2022-08-01T02:53:18;15.40;;;9.40;;
33876;SDS011;20166;51.738;7.158;2022-08-01T02:56:26;15.97;;;9.70;;
33876;SDS011;20166;51.738;7.158;2022-08-01T02:59:21;17.90;;;9.03;;
33876;SDS011;20166;51.738;7.158;2022-08-01T03:02:10;15.23;;;9.73;;
33876;SDS011;20166;51.738;7.158;2022-08-01T03:04:58;14.63;;;8.73;;
33876;SDS011;20166;51.738;7.158;2022-08-01T03:07:46;17.10;;;9.20;;
33876;SDS011;20166;51.738;7.158;2022-08-01T03:10:34;17.63;;;9.10;;
33876;SDS011;20166;51.738;7.158;2022-08-01T03:13:24;12.77;;;8.00;;
33876;SDS011;20166;51.738;7.158;2022-08-01T03:16:11;13.90;;;8.30;;
33876;SDS011;20166;51.738;7.158;2022-08-01T03:18:59;14.77;;;8.40;;
33876;SDS011;20166;51.738;7.158;2022-08-01T03:21:47;13.80;;;8.33;;
33876;SDS011;20166;51.738;7.158;2022-08-01T03:24:35;14.90;;;8.47;;
33876;SDS011;20166;51.738;7.158;2022-08-01T03:27:25;14.67;;;7.77;;
33876;SDS011;20166;51.738;7.158;2022-08-01T03:30:13;15.93;;;8.33;;
33876;SDS011;20166;51.738;7.158;2022-08-01T03:33:01;13.50;;;7.77;;
33876;SDS011;20166;51.738;7.158;2022-08-01T03:35:48;14.53;;;8.70;;
33876;SDS011;20166;51.738;7.158;2022-08-01T03:38:38;15.50;;;7.97;;
33876;SDS011;20166;51.738;7.158;2022-08-01T03:41:27;16.37;;;8.30;;
33876;SDS011;20166;51.738;7.158;2022-08-01T03:44:20;13.73;;;8.50;;
33876;SDS011;20166;51.738;7.158;2022-08-01T03:47:14;11.70;;;7.60;;
33876;SDS011;20166;51.738;7.158;2022-08-01T03:50:04;12.27;;;7.37;;
33876;SDS011;20166;51.738;7.158;2022-08-01T03:52:57;12.40;;;7.87;;
33876;SDS011;20166;51.738;7.158;2022-08-01T03:55:46;14.23;;;8.20;;
33876;SDS011;20166;51.738;7.158;2022-08-01T03:58:32;15.00;;;7.90;;
33876;SDS011;20166;51.738;7.158;2022-08-01T04:01:19;14.53;;;8.60;;
33876;SDS011;20166;51.738;7.158;2022-08-01T04:04:07;13.57;;;7.87;;
33876;SDS011;20166;51.738;7.158;2022-08-01T04:06:53;13.30;;;8.17;;
33876;SDS011;20166;51.738;7.158;2022-08-01T04:09:39;12.90;;;7.93;;
33876;SDS011;20166;51.738;7.158;2022-08-01T04:12:27;11.37;;;7.63;;
33876;SDS011;20166;51.738;7.158;2022-08-01T04:15:13;13.87;;;7.33;;
33876;SDS011;20166;51.738;7.158;2022-08-01T04:18:00;15.77;;;8.93;;
33876;SDS011;20166;51.738;7.158;2022-08-01T04:20:47;14.23;;;8.00;;
33876;SDS011;20166;51.738;7.158;2022-08-01T04:23:34;16.00;;;8.20;;
33876;SDS011;20166;51.738;7.158;2022-08-01T04:26:21;12.10;;;7.70;;
33876;SDS011;20166;51.738;7.158;2022-08-01T04:29:09;11.03;;;7.30;;
33876;SDS011;20166;51.738;7.158;2022-08-01T04:31:57;12.83;;;8.40;;
33876;SDS011;20166;51.738;7.158;2022-08-01T04:34:45;12.77;;;7.73;;
33876;SDS011;20166;51.738;7.158;2022-08-01T04:37:35;17.80;;;8.07;;
33876;SDS011;20166;51.738;7.158;2022-08-01T04:40:23;12.03;;;7.67;;
33876;SDS011;20166;51.738;7.158;2022-08-01T04:43:11;13.50;;;8.37;;
33876;SDS011;20166;51.738;7.158;2022-08-01T04:45:59;13.17;;;7.37;;
33876;SDS011;20166;51.738;7.158;2022-08-01T04:48:48;14.40;;;7.77;;
33876;SDS011;20166;51.738;7.158;2022-08-01T04:51:35;12.50;;;7.30;;
33876;SDS011;20166;51.738;7.158;2022-08-01T04:54:23;11.70;;;7.33;;
33876;SDS011;20166;51.738;7.158;2022-08-01T04:57:09;14.30;;;7.70;;
33876;SDS011;20166;51.738;7.158;2022-08-01T04:59:55;12.63;;;7.37;;
33876;SDS011;20166;51.738;7.158;2022-08-01T05:02:42;13.03;;;7.70;;
33876;SDS011;20166;51.738;7.158;2022-08-01T05:05:28;13.73;;;7.80;;
33876;SDS011;20166;51.738;7.158;2022-08-01T05:08:15;15.13;;;7.80;;
33876;SDS011;20166;51.738;7.158;2022-08-01T05:11:03;13.47;;;7.97;;
33876;SDS011;20166;51.738;7.158;2022-08-01T05:13:49;14.93;;;8.43;;
33876;SDS011;20166;51.738;7.158;2022-08-01T05:16:36;14.40;;;7.77;;
33876;SDS011;20166;51.738;7.158;2022-08-01T05:19:22;11.97;;;7.23;;
33876;SDS011;20166;51.738;7.158;2022-08-01T05:22:09;14.13;;;7.93;;
33876;SDS011;20166;51.738;7.158;2022-08-01T05:24:56;14.83;;;8.20;;
33876;SDS011;20166;51.738;7.158;2022-08-01T05:27:44;16.33;;;8.27;;
33876;SDS011;20166;51.738;7.158;2022-08-01T05:30:32;14.07;;;7.63;;
33876;SDS011;20166;51.738;7.158;2022-08-01T05:33:19;15.53;;;8.30;;
33876;SDS011;20166;51.738;7.158;2022-08-01T05:36:06;14.13;;;8.10;;
33876;SDS011;20166;51.738;7.158;2022-08-01T05:38:53;15.43;;;8.70;;
33876;SDS011;20166;51.738;7.158;2022-08-01T05:41:39;13.57;;;8.20;;
33876;SDS011;20166;51.738;7.158;2022-08-01T05:44:28;15.67;;;8.13;;
33876;SDS011;20166;51.738;7.158;2022-08-01T05:47:14;17.17;;;9.40;;
33876;SDS011;20166;51.738;7.158;2022-08-01T05:50:00;15.20;;;8.67;;
33876;SDS011;20166;51.738;7.158;2022-08-01T05:52:47;14.13;;;8.97;;
33876;SDS011;20166;51.738;7.158;2022-08-01T05:55:34;15.63;;;8.40;;
33876;SDS011;20166;51.738;7.158;2022-08-01T05:58:20;13.03;;;7.90;;
33876;SDS011;20166;51.738;7.158;2022-08-01T06:01:07;12.37;;;7.60;;
33876;SDS011;20166;51.738;7.158;2022-08-01T06:03:54;12.57;;;7.40;;
33876;SDS011;20166;51.738;7.158;2022-08-01T06:06:40;11.97;;;6.77;;
33876;SDS011;20166;51.738;7.158;2022-08-01T06:09:26;10.20;;;6.80;;
33876;SDS011;20166;51.738;7.158;2022-08-01T06:12:13;13.37;;;6.83;;
33876;SDS011;20166;51.738;7.158;2022-08-01T06:15:00;10.70;;;6.20;;
33876;SDS011;20166;51.738;7.158;2022-08-01T06:17:48;12.30;;;6.77;;
33876;SDS011;20166;51.738;7.158;2022-08-01T06:20:34;10.67;;;6.53;;
33876;SDS011;20166;51.738;7.158;2022-08-01T06:23:20;7.87;;;5.33;;
33876;SDS011;20166;51.738;7.158;2022-08-01T06:26:17;12.37;;;6.73;;
33876;SDS011;20166;51.738;7.158;2022-08-01T06:29:03;9.03;;;6.60;;
33876;SDS011;20166;51.738;7.158;2022-08-01T06:31:49;11.13;;;6.63;;
33876;SDS011;20166;51.738;7.158;2022-08-01T06:34:37;10.10;;;6.83;;
33876;SDS011;20166;51.738;7.158;2022-08-01T06:37:23;11.93;;;6.80;;
33876;SDS011;20166;51.738;7.158;2022-08-01T06:40:13;14.07;;;7.47;;
33876;SDS011;20166;51.738;7.158;2022-08-01T06:43:01;14.43;;;7.63;;
33876;SDS011;20166;51.738;7.158;2022-08-01T06:45:47;12.53;;;8.10;;
33876;SDS011;20166;51.738;7.158;2022-08-01T06:48:34;15.17;;;8.73;;
33876;SDS011;20166;51.738;7.158;2022-08-01T06:51:25;12.57;;;7.67;;
33876;SDS011;20166;51.738;7.158;2022-08-01T06:54:11;14.07;;;7.70;;
33876;SDS011;20166;51.738;7.158;2022-08-01T06:56:57;15.67;;;7.80;;
33876;SDS011;20166;51.738;7.158;2022-08-01T06:59:43;13.30;;;8.10;;
33876;SDS011;20166;51.738;7.158;2022-08-01T07:02:38;13.23;;;7.33;;
33876;SDS011;20166;51.738;7.158;2022-08-01T07:05:25;13.10;;;7.60;;
33876;SDS011;20166;51.738;7.158;2022-08-01T07:08:14;11.50;;;7.07;;
33876;SDS011;20166;51.738;7.158;2022-08-01T07:11:00;10.37;;;7.13;;
33876;SDS011;20166;51.738;7.158;2022-08-01T07:13:46;10.20;;;6.43;;
33876;SDS011;20166;51.738;7.158;2022-08-01T07:16:32;11.47;;;6.60;;
33876;SDS011;20166;51.738;7.158;2022-08-01T07:19:18;12.20;;;6.80;;
33876;SDS011;20166;51.738;7.158;2022-08-01T07:22:05;9.87;;;6.80;;
33876;SDS011;20166;51.738;7.158;2022-08-01T07:24:56;10.20;;;7.23;;
33876;SDS011;20166;51.738;7.158;2022-08-01T07:27:42;11.00;;;6.70;;
33876;SDS011;20166;51.738;7.158;2022-08-01T07:30:29;10.33;;;6.90;;
33876;SDS011;20166;51.738;7.158;2022-08-01T07:33:16;8.47;;;6.67;;
33876;SDS011;20166;51.738;7.158;2022-08-01T07:36:02;10.67;;;6.53;;
33876;SDS011;20166;51.738;7.158;2022-08-01T07:38:52;9.67;;;6.13;;
33876;SDS011;20166;51.738;7.158;2022-08-01T07:41:40;8.67;;;5.87;;
33876;SDS011;20166;51.738;7.158;2022-08-01T07:44:46;7.30;;;5.70;;
33876;SDS011;20166;51.738;7.158;2022-08-01T07:47:32;7.47;;;5.60;;
33876;SDS011;20166;51.738;7.158;2022-08-01T07:50:19;7.30;;;5.10;;
33876;SDS011;20166;51.738;7.158;2022-08-01T07:53:05;8.40;;;5.00;;
33876;SDS011;20166;51.738;7.158;2022-08-01T07:55:52;6.00;;;4.77;;
33876;SDS011;20166;51.738;7.158;2022-08-01T07:58:40;7.20;;;4.83;;
33876;SDS011;20166;51.738;7.158;2022-08-01T08:01:26;7.27;;;5.17;;
33876;SDS011;20166;51.738;7.158;2022-08-01T08:04:13;8.10;;;4.20;;
33876;SDS011;20166;51.738;7.158;2022-08-01T08:06:59;6.93;;;4.40;;
33876;SDS011;20166;51.738;7.158;2022-08-01T08:09:45;5.93;;;4.40;;
33876;SDS011;20166;51.738;7.158;2022-08-01T08:12:35;5.90;;;4.43;;
33876;SDS011;20166;51.738;7.158;2022-08-01T08:15:23;7.10;;;4.20;;
33876;SDS011;20166;51.738;7.158;2022-08-01T08:18:09;5.90;;;4.20;;
33876;SDS011;20166;51.738;7.158;2022-08-01T08:20:55;5.43;;;4.00;;
33876;SDS011;20166;51.738;7.158;2022-08-01T08:23:41;7.33;;;4.40;;
33876;SDS011;20166;51.738;7.158;2022-08-01T08:26:46;6.63;;;3.80;;
33876;SDS011;20166;51.738;7.158;2022-08-01T08:29:36;4.67;;;3.30;;
33876;SDS011;20166;51.738;7.158;2022-08-01T08:32:24;3.67;;;2.63;;
33876;SDS011;20166;51.738;7.158;2022-08-01T08:35:10;2.20;;;2.00;;
33876;SDS011;20166;51.738;7.158;2022-08-01T08:38:07;2.20;;;2.00;;
33876;SDS011;20166;51.738;7.158;2022-08-01T08:40:55;2.50;;;2.00;;
33876;SDS011;20166;51.738;7.158;2022-08-01T08:43:42;3.07;;;2.27;;
33876;SDS011;20166;51.738;7.158;2022-08-01T08:46:29;2.53;;;2.10;;
33876;SDS011;20166;51.738;7.158;2022-08-01T08:49:20;2.33;;;1.90;;
33876;SDS011;20166;51.738;7.158;2022-08-01T08:52:19;2.17;;;1.70;;
33876;SDS011;20166;51.738;7.158;2022-08-01T08:55:07;2.73;;;2.10;;
33876;SDS011;20166;51.738;7.158;2022-08-01T08:57:54;3.20;;;2.03;;
33876;SDS011;20166;51.738;7.158;2022-08-01T09:00:42;5.13;;;2.40;;
33876;SDS011;20166;51.738;7.158;2022-08-01T09:03:32;2.40;;;2.10;;
33876;SDS011;20166;51.738;7.158;2022-08-01T09:06:20;0.97;;;0.97;;
33876;SDS011;20166;51.738;7.158;2022-08-01T09:09:07;1.13;;;0.90;;
33876;SDS011;20166;51.738;7.158;2022-08-01T09:11:54;0.93;;;0.93;;
33876;SDS011;20166;51.738;7.158;2022-08-01T09:14:45;0.80;;;0.80;;
33876;SDS011;20166;51.738;7.158;2022-08-01T09:17:39;0.80;;;0.80;;
33876;SDS011;20166;51.738;7.158;2022-08-01T09:20:29;0.70;;;0.70;;
33876;SDS011;20166;51.738;7.158;2022-08-01T09:26:09;0.70;;;0.70;;
33876;SDS011;20166;51.738;7.158;2022-08-01T09:28:57;0.60;;;0.60;;
33876;SDS011;20166;51.738;7.158;2022-08-01T09:31:44;0.97;;;0.97;;
33876;SDS011;20166;51.738;7.158;2022-08-01T09:34:32;0.80;;;0.80;;
33876;SDS011;20166;51.738;7.158;2022-08-01T09:37:18;1.10;;;0.83;;
33876;SDS011;20166;51.738;7.158;2022-08-01T09:40:21;1.00;;;0.73;;
33876;SDS011;20166;51.738;7.158;2022-08-01T09:43:12;1.80;;;0.80;;
33876;SDS011;20166;51.738;7.158;2022-08-01T09:45:59;2.50;;;2.00;;
33876;SDS011;20166;51.738;7.158;2022-08-01T09:48:56;3.90;;;2.30;;
33876;SDS011;20166;51.738;7.158;2022-08-01T09:51:44;1.90;;;0.90;;
33876;SDS011;20166;51.738;7.158;2022-08-01T09:54:51;1.23;;;0.90;;
33876;SDS011;20166;51.738;7.158;2022-08-01T09:57:39;0.77;;;0.70;;
33876;SDS011;20166;51.738;7.158;2022-08-01T10:00:28;0.90;;;0.90;;
33876;SDS011;20166;51.738;7.158;2022-08-01T10:03:29;0.93;;;0.93;;
33876;SDS011;20166;51.738;7.158;2022-08-01T10:06:19;0.80;;;0.80;;
33876;SDS011;20166;51.738;7.158;2022-08-01T10:09:09;0.87;;;0.87;;
33876;SDS011;20166;51.738;7.158;2022-08-01T10:11:57;0.90;;;0.90;;
33876;SDS011;20166;51.738;7.158;2022-08-01T10:14:46;0.90;;;0.90;;
33876;SDS011;20166;51.738;7.158;2022-08-01T10:17:35;0.90;;;0.90;;
33876;SDS011;20166;51.738;7.158;2022-08-01T10:20:35;1.53;;;1.00;;
33876;SDS011;20166;51.738;7.158;2022-08-01T10:23:22;1.00;;;1.00;;
33876;SDS011;20166;51.738;7.158;2022-08-01T10:26:25;1.30;;;1.20;;
33876;SDS011;20166;51.738;7.158;2022-08-01T10:29:15;0.90;;;0.90;;
33876;SDS011;20166;51.738;7.158;2022-08-01T10:32:24;1.10;;;1.00;;
33876;SDS011;20166;51.738;7.158;2022-08-01T10:35:14;1.30;;;1.00;;
33876;SDS011;20166;51.738;7.158;2022-08-01T10:38:22;1.97;;;0.90;;
33876;SDS011;20166;51.738;7.158;2022-08-01T10:41:09;1.17;;;0.90;;
33876;SDS011;20166;51.738;7.158;2022-08-01T10:43:57;1.57;;;0.70;;
33876;SDS011;20166;51.738;7.158;2022-08-01T10:46:44;1.27;;;1.00;;
33876;SDS011;20166;51.738;7.158;2022-08-01T10:49:39;0.90;;;0.90;;
33876;SDS011;20166;51.738;7.158;2022-08-01T10:52:30;0.87;;;0.87;;
33876;SDS011;20166;51.738;7.158;2022-08-01T10:55:23;1.57;;;1.00;;
33876;SDS011;20166;51.738;7.158;2022-08-01T10:58:10;5.13;;;1.20;;
33876;SDS011;20166;51.738;7.158;2022-08-01T11:01:16;1.80;;;1.10;;
33876;SDS011;20166;51.738;7.158;2022-08-01T11:04:12;0.90;;;0.90;;
33876;SDS011;20166;51.738;7.158;2022-08-01T11:07:03;1.10;;;1.00;;
33876;SDS011;20166;51.738;7.158;2022-08-01T11:10:03;1.00;;;1.00;;
33876;SDS011;20166;51.738;7.158;2022-08-01T11:12:58;1.20;;;1.07;;
33876;SDS011;20166;51.738;7.158;2022-08-01T11:15:48;1.07;;;1.07;;
33876;SDS011;20166;51.738;7.158;2022-08-01T11:18:35;1.20;;;1.00;;
33876;SDS011;20166;51.738;7.158;2022-08-01T11:21:22;0.93;;;0.93;;
33876;SDS011;20166;51.738;7.158;2022-08-01T11:24:54;1.40;;;1.30;;
33876;SDS011;20166;51.738;7.158;2022-08-01T11:27:46;1.97;;;1.20;;
33876;SDS011;20166;51.738;7.158;2022-08-01T11:30:33;1.00;;;1.00;;
33876;SDS011;20166;51.738;7.158;2022-08-01T11:33:47;1.20;;;1.10;;
33876;SDS011;20166;51.738;7.158;2022-08-01T11:36:35;1.30;;;1.20;;
33876;SDS011;20166;51.738;7.158;2022-08-01T11:39:41;1.23;;;1.20;;
33876;SDS011;20166;51.738;7.158;2022-08-01T11:42:28;1.30;;;1.20;;
33876;SDS011;20166;51.738;7.158;2022-08-01T11:45:16;1.43;;;1.33;;
33876;SDS011;20166;51.738;7.158;2022-08-01T11:48:03;1.33;;;1.10;;
33876;SDS011;20166;51.738;7.158;2022-08-01T11:51:03;1.83;;;1.20;;
33876;SDS011;20166;51.738;7.158;2022-08-01T11:54:09;1.90;;;1.10;;
33876;SDS011;20166;51.738;7.158;2022-08-01T11:56:56;2.17;;;1.53;;
33876;SDS011;20166;51.738;7.158;2022-08-01T11:59:44;1.70;;;1.60;;
33876;SDS011;20166;51.738;7.158;2022-08-01T12:02:56;2.43;;;1.57;;
33876;SDS011;20166;51.738;7.158;2022-08-01T12:05:44;1.80;;;1.70;;
33876;SDS011;20166;51.738;7.158;2022-08-01T12:08:31;1.50;;;1.40;;
33876;SDS011;20166;51.738;7.158;2022-08-01T12:11:19;1.43;;;1.30;;
33876;SDS011;20166;51.738;7.158;2022-08-01T12:14:07;2.07;;;1.37;;
33876;SDS011;20166;51.738;7.158;2022-08-01T12:16:53;1.73;;;1.40;;
33876;SDS011;20166;51.738;7.158;2022-08-01T12:19:41;3.60;;;1.50;;
33876;SDS011;20166;51.738;7.158;2022-08-01T12:22:27;1.50;;;1.40;;
33876;SDS011;20166;51.738;7.158;2022-08-01T12:25:14;2.57;;;1.87;;
33876;SDS011;20166;51.738;7.158;2022-08-01T12:28:02;2.83;;;1.70;;
33876;SDS011;20166;51.738;7.158;2022-08-01T12:30:50;3.63;;;1.60;;
33876;SDS011;20166;51.738;7.158;2022-08-01T12:33:36;1.97;;;1.60;;
33876;SDS011;20166;51.738;7.158;2022-08-01T12:36:28;2.80;;;1.70;;
33876;SDS011;20166;51.738;7.158;2022-08-01T12:39:14;3.30;;;1.60;;
33876;SDS011;20166;51.738;7.158;2022-08-01T12:42:01;2.00;;;1.80;;
33876;SDS011;20166;51.738;7.158;2022-08-01T12:44:48;1.73;;;1.50;;
33876;SDS011;20166;51.738;7.158;2022-08-01T12:47:35;2.60;;;1.43;;
33876;SDS011;20166;51.738;7.158;2022-08-01T12:50:23;1.87;;;1.67;;
33876;SDS011;20166;51.738;7.158;2022-08-01T12:53:14;2.33;;;1.70;;
33876;SDS011;20166;51.738;7.158;2022-08-01T12:56:05;1.77;;;1.67;;
33876;SDS011;20166;51.738;7.158;2022-08-01T12:58:52;1.77;;;1.67;;
33876;SDS011;20166;51.738;7.158;2022-08-01T13:01:39;3.42;;;1.70;;
33876;SDS011;20166;51.738;7.158;2022-08-01T13:04:27;2.67;;;1.50;;
33876;SDS011;20166;51.738;7.158;2022-08-01T13:07:13;1.80;;;1.70;;
33876;SDS011;20166;51.738;7.158;2022-08-01T13:10:01;2.63;;;1.67;;
33876;SDS011;20166;51.738;7.158;2022-08-01T13:12:50;2.72;;;1.77;;
33876;SDS011;20166;51.738;7.158;2022-08-01T13:15:40;1.90;;;1.80;;
33876;SDS011;20166;51.738;7.158;2022-08-01T13:18:29;2.28;;;1.77;;
33876;SDS011;20166;51.738;7.158;2022-08-01T13:21:17;2.85;;;1.40;;
33876;SDS011;20166;51.738;7.158;2022-08-01T13:24:05;2.83;;;1.70;;
33876;SDS011;20166;51.738;7.158;2022-08-01T13:26:56;2.70;;;1.80;;
33876;SDS011;20166;51.738;7.158;2022-08-01T13:29:44;3.13;;;1.83;;
33876;SDS011;20166;51.738;7.158;2022-08-01T13:32:34;2.43;;;2.20;;
33876;SDS011;20166;51.738;7.158;2022-08-01T13:35:21;2.90;;;2.20;;
33876;SDS011;20166;51.738;7.158;2022-08-01T13:38:07;2.87;;;1.97;;
33876;SDS011;20166;51.738;7.158;2022-08-01T13:40:57;2.30;;;2.10;;
33876;SDS011;20166;51.738;7.158;2022-08-01T13:43:45;2.67;;;2.20;;
33876;SDS011;20166;51.738;7.158;2022-08-01T13:46:43;3.93;;;2.23;;
33876;SDS011;20166;51.738;7.158;2022-08-01T13:49:35;2.53;;;1.90;;
33876;SDS011;20166;51.738;7.158;2022-08-01T13:52:24;3.03;;;2.20;;
33876;SDS011;20166;51.738;7.158;2022-08-01T13:55:11;3.37;;;2.10;;
33876;SDS011;20166;51.738;7.158;2022-08-01T13:57:57;5.50;;;2.80;;
33876;SDS011;20166;51.738;7.158;2022-08-01T14:00:45;3.43;;;2.57;;
33876;SDS011;20166;51.738;7.158;2022-08-01T14:03:31;5.32;;;2.15;;
33876;SDS011;20166;51.738;7.158;2022-08-01T14:06:17;6.13;;;2.35;;
33876;SDS011;20166;51.738;7.158;2022-08-01T14:09:06;3.50;;;2.25;;
33876;SDS011;20166;51.738;7.158;2022-08-01T14:12:02;3.08;;;2.03;;
33876;SDS011;20166;51.738;7.158;2022-08-01T14:14:51;3.88;;;2.47;;
33876;SDS011;20166;51.738;7.158;2022-08-01T14:17:39;4.93;;;2.13;;
33876;SDS011;20166;51.738;7.158;2022-08-01T14:20:32;5.20;;;2.30;;
33876;SDS011;20166;51.738;7.158;2022-08-01T14:23:19;4.93;;;2.40;;
33876;SDS011;20166;51.738;7.158;2022-08-01T14:26:06;4.35;;;1.98;;
33876;SDS011;20166;51.738;7.158;2022-08-01T14:28:56;2.53;;;2.13;;
33876;SDS011;20166;51.738;7.158;2022-08-01T14:31:42;4.72;;;2.17;;
33876;SDS011;20166;51.738;7.158;2022-08-01T14:34:30;3.20;;;2.03;;
33876;SDS011;20166;51.738;7.158;2022-08-01T14:37:16;5.53;;;2.70;;
33876;SDS011;20166;51.738;7.158;2022-08-01T14:40:05;4.20;;;2.07;;
33876;SDS011;20166;51.738;7.158;2022-08-01T14:42:53;3.83;;;2.43;;
33876;SDS011;20166;51.738;7.158;2022-08-01T14:45:40;4.77;;;2.30;;
33876;SDS011;20166;51.738;7.158;2022-08-01T14:48:26;4.82;;;2.38;;
33876;SDS011;20166;51.738;7.158;2022-08-01T14:51:15;3.17;;;2.13;;
33876;SDS011;20166;51.738;7.158;2022-08-01T14:54:01;5.15;;;2.20;;
33876;SDS011;20166;51.738;7.158;2022-08-01T14:56:48;6.00;;;2.00;;
33876;SDS011;20166;51.738;7.158;2022-08-01T14:59:36;2.30;;;2.03;;
33876;SDS011;20166;51.738;7.158;2022-08-01T15:02:22;3.83;;;2.10;;
33876;SDS011;20166;51.738;7.158;2022-08-01T15:05:11;2.25;;;1.92;;
33876;SDS011;20166;51.738;7.158;2022-08-01T15:07:59;3.67;;;2.15;;
33876;SDS011;20166;51.738;7.158;2022-08-01T15:10:45;3.22;;;1.80;;
33876;SDS011;20166;51.738;7.158;2022-08-01T15:13:31;3.15;;;1.85;;
33876;SDS011;20166;51.738;7.158;2022-08-01T15:16:23;5.25;;;1.98;;
33876;SDS011;20166;51.738;7.158;2022-08-01T15:19:09;3.00;;;1.95;;
33876;SDS011;20166;51.738;7.158;2022-08-01T15:21:56;4.75;;;1.90;;
33876;SDS011;20166;51.738;7.158;2022-08-01T15:24:48;2.72;;;2.22;;
33876;SDS011;20166;51.738;7.158;2022-08-01T15:27:41;4.03;;;2.08;;
33876;SDS011;20166;51.738;7.158;2022-08-01T15:30:27;3.33;;;2.05;;
33876;SDS011;20166;51.738;7.158;2022-08-01T15:33:14;3.22;;;2.03;;
33876;SDS011;20166;51.738;7.158;2022-08-01T15:36:01;4.30;;;2.10;;
33876;SDS011;20166;51.738;7.158;2022-08-01T15:38:47;8.88;;;2.25;;
33876;SDS011;20166;51.738;7.158;2022-08-01T15:41:35;4.57;;;2.10;;
33876;SDS011;20166;51.738;7.158;2022-08-01T15:44:22;4.93;;;2.05;;
33876;SDS011;20166;51.738;7.158;2022-08-01T15:47:08;3.25;;;1.90;;
33876;SDS011;20166;51.738;7.158;2022-08-01T15:49:55;3.83;;;1.92;;
33876;SDS011;20166;51.738;7.158;2022-08-01T15:52:43;5.47;;;2.25;;
33876;SDS011;20166;51.738;7.158;2022-08-01T15:55:30;5.07;;;2.03;;
33876;SDS011;20166;51.738;7.158;2022-08-01T15:58:19;1.85;;;1.67;;
33876;SDS011;20166;51.738;7.158;2022-08-01T16:01:05;3.38;;;2.17;;
33876;SDS011;20166;51.738;7.158;2022-08-01T16:03:51;3.42;;;1.90;;
33876;SDS011;20166;51.738;7.158;2022-08-01T16:06:38;2.95;;;1.90;;
33876;SDS011;20166;51.738;7.158;2022-08-01T16:09:27;4.32;;;2.00;;
33876;SDS011;20166;51.738;7.158;2022-08-01T16:12:13;2.90;;;2.30;;
33876;SDS011;20166;51.738;7.158;2022-08-01T16:15:01;2.85;;;1.88;;
33876;SDS011;20166;51.738;7.158;2022-08-01T16:17:47;3.92;;;2.22;;
33876;SDS011;20166;51.738;7.158;2022-08-01T16:20:34;4.95;;;2.38;;
33876;SDS011;20166;51.738;7.158;2022-08-01T16:23:28;2.75;;;2.10;;
33876;SDS011;20166;51.738;7.158;2022-08-01T16:26:15;5.10;;;2.20;;
33876;SDS011;20166;51.738;7.158;2022-08-01T16:29:11;3.97;;;2.00;;
33876;SDS011;20166;51.738;7.158;2022-08-01T16:31:59;4.13;;;2.20;;
33876;SDS011;20166;51.738;7.158;2022-08-01T16:35:06;4.73;;;2.70;;
33876;SDS011;20166;51.738;7.158;2022-08-01T16:37:53;5.40;;;3.40;;
33876;SDS011;20166;51.738;7.158;2022-08-01T16:40:39;5.00;;;2.07;;
33876;SDS011;20166;51.738;7.158;2022-08-01T16:43:31;7.63;;;2.40;;
33876;SDS011;20166;51.738;7.158;2022-08-01T16:46:20;4.23;;;2.13;;
33876;SDS011;20166;51.738;7.158;2022-08-01T16:49:09;3.53;;;2.10;;
33876;SDS011;20166;51.738;7.158;2022-08-01T16:51:56;4.23;;;2.13;;
33876;SDS011;20166;51.738;7.158;2022-08-01T16:54:42;6.97;;;4.47;;
33876;SDS011;20166;51.738;7.158;2022-08-01T16:57:28;5.53;;;2.60;;